Time;durP1;ratioP1;P1;durP2;ratioP2;P2;SDS_P1;SDS_P2;PMS_P1;PMS_P2;Temp;Humidity;BMP_temperature;BMP_pressure;BME280_temperature;BME280_humidity;BME280_pressure;Samples;Min_cycle;Max_cycle;Signal;HPM_P1;HPM_P2
2021/09/09 00:02:03;;;;;;;20.20;16.60;;;;;;;15.83;92.75;100870.72;5026044;28;20060;-68
2021/09/09 00:04:31;;;;;;;26.15;16.88;;;;;;;15.82;92.88;100871.69;5024768;28;20252;-67
2021/09/09 00:06:58;;;;;;;22.45;17.55;;;;;;;15.72;93.68;100878.69;5042518;28;20614;-67
2021/09/09 00:09:25;;;;;;;22.20;17.73;;;;;;;15.72;93.05;100870.72;5043160;28;20051;-68
2021/09/09 00:11:53;;;;;;;25.75;18.00;;;;;;;15.66;93.52;100869.34;5026121;28;20127;-68
2021/09/09 00:14:20;;;;;;;28.90;16.38;;;;;;;15.71;93.15;100866.34;5026244;28;20071;-69
2021/09/09 00:16:48;;;;;;;21.08;16.15;;;;;;;15.67;93.35;100872.88;5013694;28;20127;-69
2021/09/09 00:19:15;;;;;;;21.15;16.52;;;;;;;15.57;94.22;100863.88;4993572;28;20049;-70
2021/09/09 00:21:42;;;;;;;21.40;16.40;;;;;;;15.40;95.18;100860.72;5044559;28;20051;-68
2021/09/09 00:24:10;;;;;;;22.10;16.75;;;;;;;15.37;95.82;100857.44;5024548;28;20065;-68
2021/09/09 00:26:37;;;;;;;25.40;17.20;;;;;;;15.41;94.97;100859.75;5044751;28;20055;-68
2021/09/09 00:29:04;;;;;;;23.90;17.38;;;;;;;15.17;96.57;100857.13;5037617;28;20045;-69
2021/09/09 00:31:31;;;;;;;22.77;17.58;;;;;;;15.05;97.88;100854.53;5026073;28;20465;-68
2021/09/09 00:33:59;;;;;;;23.60;17.00;;;;;;;15.07;98.05;100849.97;5042435;28;20180;-69
2021/09/09 00:36:26;;;;;;;22.35;17.35;;;;;;;14.96;99.07;100852.56;5026360;28;20063;-69
2021/09/09 00:38:53;;;;;;;25.15;17.98;;;;;;;14.85;99.61;100853.34;5037062;28;20092;-69
2021/09/09 00:41:22;;;;;;;20.15;17.95;;;;;;;14.82;99.51;100856.22;5044253;28;20067;-67
2021/09/09 00:43:49;;;;;;;25.08;17.50;;;;;;;14.70;100.00;100855.31;5043182;28;20048;-68
2021/09/09 00:46:22;;;;;;;24.08;18.70;;;;;;;14.61;100.00;100854.16;5039425;28;20464;-70
2021/09/09 00:48:49;;;;;;;21.92;18.10;;;;;;;14.57;100.00;100855.34;5029065;28;20064;-68
2021/09/09 00:51:16;;;;;;;22.58;17.27;;;;;;;14.66;100.00;100851.19;5031569;28;20117;-67
2021/09/09 00:53:44;;;;;;;25.30;17.58;;;;;;;14.77;100.00;100850.38;5017160;28;20129;-68
2021/09/09 00:56:12;;;;;;;23.40;17.85;;;;;;;14.84;100.00;100855.16;5038278;28;20143;-70
2021/09/09 00:58:41;;;;;;;25.70;17.88;;;;;;;14.64;100.00;100851.31;5011427;28;20143;-68
2021/09/09 01:01:09;;;;;;;24.38;19.02;;;;;;;14.61;100.00;100850.69;5043029;28;20497;-69
2021/09/09 01:03:36;;;;;;;22.58;18.75;;;;;;;14.43;100.00;100847.50;5024033;28;20148;-69
2021/09/09 01:06:04;;;;;;;22.05;18.17;;;;;;;14.34;100.00;100850.81;5045104;28;20099;-70
2021/09/09 01:08:31;;;;;;;24.58;18.23;;;;;;;14.21;100.00;100850.84;5027369;28;20427;-72
2021/09/09 01:10:58;;;;;;;23.65;19.23;;;;;;;14.13;100.00;100846.06;5033135;28;20136;-67
2021/09/09 01:13:26;;;;;;;21.48;18.10;;;;;;;14.13;100.00;100851.34;5040330;28;20144;-68
2021/09/09 01:15:53;;;;;;;26.38;19.02;;;;;;;14.32;100.00;100840.34;5040211;28;20057;-68
2021/09/09 01:18:20;;;;;;;26.20;18.33;;;;;;;14.48;100.00;100844.53;5024202;28;20053;-68
2021/09/09 01:20:47;;;;;;;25.00;18.23;;;;;;;14.47;100.00;100838.38;5022669;28;20448;-70
2021/09/09 01:23:15;;;;;;;27.23;18.63;;;;;;;14.44;100.00;100844.75;5021953;28;20099;-67
2021/09/09 01:25:42;;;;;;;25.88;19.20;;;;;;;14.33;100.00;100841.19;5004939;28;20402;-68
2021/09/09 01:28:09;;;;;;;22.95;18.08;;;;;;;14.28;100.00;100844.16;5005000;28;20476;-69
2021/09/09 01:30:38;;;;;;;22.95;17.83;;;;;;;14.26;100.00;100842.56;5028057;28;20135;-67
2021/09/09 01:33:05;;;;;;;23.13;17.80;;;;;;;14.28;100.00;100840.66;5042090;28;20495;-67
2021/09/09 01:35:32;;;;;;;23.52;17.98;;;;;;;14.21;100.00;100837.59;5019683;28;20456;-69
2021/09/09 01:37:59;;;;;;;25.13;17.77;;;;;;;14.15;100.00;100835.38;5022489;28;20624;-69
2021/09/09 01:40:31;;;;;;;20.20;17.60;;;;;;;14.06;100.00;100834.22;5040698;28;20056;-71
2021/09/09 01:42:59;;;;;;;23.85;18.27;;;;;;;14.02;100.00;100831.91;5037020;28;20059;-70
2021/09/09 01:45:26;;;;;;;23.50;17.88;;;;;;;14.03;100.00;100833.59;5041154;28;20041;-70
2021/09/09 01:47:54;;;;;;;24.08;18.80;;;;;;;14.12;100.00;100830.31;5002285;28;20053;-68
2021/09/09 01:50:21;;;;;;;21.83;18.13;;;;;;;14.14;100.00;100833.69;5009809;28;20136;-67
2021/09/09 01:52:48;;;;;;;20.67;16.58;;;;;;;14.16;100.00;100829.97;5040961;28;20673;-68
2021/09/09 01:55:16;;;;;;;20.55;17.55;;;;;;;14.21;100.00;100832.28;5038478;28;20124;-68
2021/09/09 01:57:43;;;;;;;22.95;16.85;;;;;;;14.14;100.00;100831.91;5041818;28;20092;-68
2021/09/09 02:00:10;;;;;;;24.00;16.40;;;;;;;14.14;100.00;100826.59;5023918;28;20045;-68
2021/09/09 02:02:39;;;;;;;19.92;17.08;;;;;;;14.11;100.00;100834.75;5042475;28;20072;-69
2021/09/09 02:05:07;;;;;;;19.75;15.30;;;;;;;14.26;99.00;100830.16;5018883;28;20646;-69
2021/09/09 02:07:34;;;;;;;20.25;15.88;;;;;;;14.15;99.87;100841.53;5020267;28;20148;-68
2021/09/09 02:10:02;;;;;;;19.88;16.05;;;;;;;14.16;98.95;100832.63;5037158;28;20048;-67
2021/09/09 02:12:30;;;;;;;24.00;16.50;;;;;;;14.10;99.66;100833.06;5025624;28;20388;-69
2021/09/09 02:14:57;;;;;;;23.60;17.10;;;;;;;14.10;99.88;100830.41;5021892;28;20132;-70
2021/09/09 02:17:24;;;;;;;21.13;15.20;;;;;;;14.09;99.75;100828.69;5027478;28;20452;-68
2021/09/09 02:19:51;;;;;;;21.10;15.63;;;;;;;14.14;99.34;100831.06;5024455;28;21013;-67
2021/09/09 02:22:19;;;;;;;19.35;15.20;;;;;;;14.07;99.74;100830.63;5023755;28;20697;-68
2021/09/09 02:24:46;;;;;;;24.15;16.85;;;;;;;14.07;99.00;100820.03;5039136;28;20459;-67
2021/09/09 02:27:14;;;;;;;20.95;15.48;;;;;;;14.04;98.87;100828.19;5022760;28;20124;-67
2021/09/09 02:29:42;;;;;;;22.88;16.95;;;;;;;14.06;100.00;100822.81;5016399;28;20464;-70
2021/09/09 02:32:09;;;;;;;19.88;15.25;;;;;;;14.08;97.91;100821.72;5007112;28;20160;-69
2021/09/09 02:34:37;;;;;;;19.10;15.10;;;;;;;14.09;98.33;100822.56;5041723;28;20135;-70
2021/09/09 02:37:04;;;;;;;21.30;15.63;;;;;;;14.04;98.23;100820.25;5029806;28;20115;-67
2021/09/09 02:39:32;;;;;;;19.40;15.75;;;;;;;14.04;98.20;100819.41;5042942;28;20063;-69
2021/09/09 02:41:59;;;;;;;23.85;16.05;;;;;;;13.94;99.70;100819.19;5027317;28;20131;-68
2021/09/09 02:44:26;;;;;;;18.88;15.20;;;;;;;13.82;99.63;100809.47;5040825;28;20061;-67
2021/09/09 02:46:53;;;;;;;19.02;15.05;;;;;;;13.83;99.88;100808.53;5045298;28;20045;-68
2021/09/09 02:49:20;;;;;;;23.95;16.65;;;;;;;13.85;100.00;100814.56;5043931;28;20053;-68
2021/09/09 02:51:47;;;;;;;25.17;15.82;;;;;;;13.73;100.00;100813.59;5024390;28;20091;-70
2021/09/09 02:54:15;;;;;;;19.95;16.13;;;;;;;13.68;100.00;100807.78;5043226;28;20139;-67
2021/09/09 02:56:42;;;;;;;21.17;14.68;;;;;;;13.60;100.00;100808.31;5037475;28;20124;-67
2021/09/09 02:59:09;;;;;;;22.25;16.55;;;;;;;13.61;100.00;100803.88;5043727;28;20136;-67
2021/09/09 03:01:36;;;;;;;19.20;16.05;;;;;;;13.60;100.00;100807.47;5024645;28;20959;-68
2021/09/09 03:04:04;;;;;;;21.25;15.23;;;;;;;13.60;100.00;100804.84;5041259;28;20454;-68
2021/09/09 03:06:31;;;;;;;18.65;15.88;;;;;;;13.62;100.00;100805.56;5025819;28;20111;-69
2021/09/09 03:08:59;;;;;;;20.30;16.25;;;;;;;13.72;99.63;100803.97;5043674;28;20067;-67
2021/09/09 03:11:26;;;;;;;18.20;15.38;;;;;;;13.78;99.09;100798.28;5024166;28;20072;-68
2021/09/09 03:13:53;;;;;;;21.45;16.27;;;;;;;13.98;96.56;100796.88;5043607;28;20049;-68
2021/09/09 03:16:20;;;;;;;23.95;15.70;;;;;;;13.99;97.42;100800.34;5041261;28;20502;-69
2021/09/09 03:18:48;;;;;;;18.50;14.95;;;;;;;14.04;96.66;100784.97;5026692;28;20140;-70
2021/09/09 03:21:15;;;;;;;27.10;19.75;;;;;;;14.03;97.08;100794.72;5042902;28;20550;-69
2021/09/09 03:23:42;;;;;;;22.85;16.98;;;;;;;14.02;97.02;100789.56;5042617;28;20059;-67
2021/09/09 03:26:09;;;;;;;21.33;15.40;;;;;;;14.01;96.96;100793.16;5009757;28;20131;-70
2021/09/09 03:28:36;;;;;;;21.40;16.58;;;;;;;13.92;96.62;100789.38;5044434;28;20503;-66
2021/09/09 03:31:04;;;;;;;22.77;14.82;;;;;;;13.97;96.64;100784.59;5011766;28;20067;-67
2021/09/09 03:33:31;;;;;;;17.98;15.30;;;;;;;13.97;95.66;100783.75;5042566;28;20136;-66
2021/09/09 03:35:58;;;;;;;23.25;16.15;;;;;;;13.91;95.86;100787.66;5027024;28;20052;-66
2021/09/09 03:38:25;;;;;;;19.27;14.27;;;;;;;13.96;95.18;100782.91;5023911;28;20052;-65
2021/09/09 03:40:52;;;;;;;22.65;16.63;;;;;;;13.86;96.96;100773.91;5044447;28;20128;-66
2021/09/09 03:43:19;;;;;;;22.58;16.98;;;;;;;13.78;97.35;100771.81;5026779;28;20060;-66
2021/09/09 03:45:47;;;;;;;18.35;14.70;;;;;;;13.67;97.46;100777.81;5023796;28;20152;-67
2021/09/09 03:48:14;;;;;;;24.80;14.35;;;;;;;13.63;97.99;100771.06;5035819;28;20053;-67
2021/09/09 03:50:41;;;;;;;24.95;15.48;;;;;;;13.66;97.51;100770.00;5047758;28;20137;-66
2021/09/09 03:53:08;;;;;;;17.80;15.27;;;;;;;13.66;98.33;100767.38;5022155;28;20057;-66
2021/09/09 03:55:35;;;;;;;21.20;16.13;;;;;;;13.56;98.18;100766.31;5042425;28;20772;-67
2021/09/09 03:58:03;;;;;;;20.67;16.15;;;;;;;13.52;98.65;100765.66;5027681;28;20086;-67
2021/09/09 04:00:30;;;;;;;19.35;15.10;;;;;;;13.50;98.65;100772.00;5040892;28;20059;-67
2021/09/09 04:02:59;;;;;;;21.92;16.13;;;;;;;13.39;99.06;100778.03;5039121;28;20052;-67
2021/09/09 04:05:26;;;;;;;21.10;16.80;;;;;;;13.35;98.92;100772.13;5040091;28;20058;-65
2021/09/09 04:07:54;;;;;;;25.52;16.75;;;;;;;13.32;99.93;100768.81;5042124;28;20072;-67
2021/09/09 04:10:21;;;;;;;21.30;16.08;;;;;;;13.21;100.00;100772.16;5035485;28;20057;-65
2021/09/09 04:12:49;;;;;;;22.23;16.73;;;;;;;13.09;100.00;100765.91;5031326;28;20041;-65
2021/09/09 04:15:16;;;;;;;20.60;17.20;;;;;;;12.93;100.00;100763.47;5040577;28;20132;-66
2021/09/09 04:17:43;;;;;;;21.27;16.75;;;;;;;13.04;100.00;100765.38;5043770;28;20514;-67
2021/09/09 04:20:11;;;;;;;24.25;18.48;;;;;;;12.94;100.00;100766.94;5037136;28;20049;-66
2021/09/09 04:22:38;;;;;;;24.55;16.92;;;;;;;12.80;100.00;100772.28;5007272;28;20041;-68
2021/09/09 04:25:05;;;;;;;23.45;18.30;;;;;;;12.72;100.00;100764.88;5037497;28;20123;-67
2021/09/09 04:27:33;;;;;;;28.55;18.17;;;;;;;12.81;100.00;100763.41;5026017;28;20048;-65
2021/09/09 04:30:01;;;;;;;21.65;17.58;;;;;;;12.91;100.00;100770.63;5040444;28;20095;-65
2021/09/09 04:32:28;;;;;;;25.92;16.48;;;;;;;12.97;100.00;100763.22;5016540;28;20563;-64
2021/09/09 04:34:55;;;;;;;19.92;16.92;;;;;;;13.16;100.00;100761.91;5016349;28;20077;-64
2021/09/09 04:37:22;;;;;;;24.50;17.08;;;;;;;13.15;100.00;100760.22;5032458;28;20061;-63
2021/09/09 04:39:49;;;;;;;24.55;16.90;;;;;;;13.12;100.00;100756.94;5040170;28;20128;-65
2021/09/09 04:42:17;;;;;;;19.30;15.55;;;;;;;13.27;99.14;100749.78;5030273;28;20144;-64
2021/09/09 04:44:44;;;;;;;23.45;16.08;;;;;;;13.38;98.03;100742.81;5041826;28;20055;-63
2021/09/09 04:47:11;;;;;;;24.73;16.38;;;;;;;13.42;97.03;100741.66;5045275;28;20072;-65
2021/09/09 04:49:38;;;;;;;21.98;16.63;;;;;;;13.49;96.30;100739.44;5028518;28;20136;-68
2021/09/09 04:52:05;;;;;;;20.95;15.77;;;;;;;13.65;94.76;100739.22;5003229;28;20055;-68
2021/09/09 04:54:33;;;;;;;23.63;15.77;;;;;;;13.73;94.09;100733.38;5025359;28;20061;-66
2021/09/09 04:57:00;;;;;;;17.38;14.52;;;;;;;13.80;94.40;100722.25;5025370;28;20049;-67
2021/09/09 04:59:30;;;;;;;28.23;19.85;;;;;;;13.90;93.77;100731.22;5036828;28;20087;-67
2021/09/09 05:01:57;;;;;;;25.98;14.73;;;;;;;13.83;93.91;100722.06;5029364;28;20572;-69
2021/09/09 05:04:25;;;;;;;21.85;14.85;;;;;;;13.84;92.70;100725.53;5022198;28;20052;-68
2021/09/09 05:06:52;;;;;;;24.05;15.52;;;;;;;13.86;92.46;100719.16;5043192;28;20048;-67
2021/09/09 05:09:19;;;;;;;18.25;14.93;;;;;;;13.85;92.93;100722.78;5034853;28;20255;-67
2021/09/09 05:11:47;;;;;;;22.15;15.98;;;;;;;13.74;93.14;100719.22;5039519;28;20084;-67
2021/09/09 05:14:14;;;;;;;23.67;15.35;;;;;;;13.89;91.80;100726.06;5017138;28;20128;-67
2021/09/09 05:16:45;;;;;;;23.52;14.77;;;;;;;13.84;92.87;100723.72;5025557;28;20045;-67
2021/09/09 05:19:14;;;;;;;23.92;14.02;;;;;;;13.82;92.99;100722.97;5031551;28;20516;-66
2021/09/09 05:21:43;;;;;;;25.13;14.90;;;;;;;13.98;91.88;100730.69;4997187;28;20037;-67
2021/09/09 05:24:10;;;;;;;22.67;15.57;;;;;;;14.26;90.74;100715.47;5003311;28;20128;-67
2021/09/09 05:26:38;;;;;;;21.63;15.18;;;;;;;14.37;91.15;100715.53;4994769;28;20045;-68
2021/09/09 05:29:05;;;;;;;23.13;15.07;;;;;;;14.39;89.61;100716.25;5038102;28;20147;-66
2021/09/09 05:31:32;;;;;;;26.15;14.50;;;;;;;14.44;90.29;100722.06;5040093;28;20071;-66
2021/09/09 05:33:59;;;;;;;23.00;12.93;;;;;;;14.65;85.85;100709.91;5039264;28;20099;-67
2021/09/09 05:36:26;;;;;;;17.13;12.95;;;;;;;15.17;83.38;100705.09;5038328;28;20123;-66
2021/09/09 05:38:54;;;;;;;19.42;13.38;;;;;;;15.75;80.31;100703.25;5038312;28;20167;-66
2021/09/09 05:41:21;;;;;;;19.17;12.65;;;;;;;16.29;76.72;100702.41;5023261;28;20060;-66
2021/09/09 05:43:49;;;;;;;16.42;11.73;;;;;;;16.66;73.69;100702.03;5043825;28;20098;-66
2021/09/09 05:46:16;;;;;;;22.80;13.45;;;;;;;16.50;73.54;100709.63;5037847;28;20106;-67
2021/09/09 05:48:43;;;;;;;15.98;11.60;;;;;;;16.20;75.61;100703.16;5044841;28;20519;-67
2021/09/09 05:51:10;;;;;;;14.45;12.13;;;;;;;15.96;75.41;100708.66;5041594;28;20408;-66
2021/09/09 05:53:37;;;;;;;20.02;12.23;;;;;;;15.91;75.75;100705.53;5043808;28;20124;-67
2021/09/09 05:56:05;;;;;;;18.45;12.68;;;;;;;15.94;75.57;100702.66;5047176;28;20064;-69
2021/09/09 05:58:32;;;;;;;14.55;11.48;;;;;;;15.91;75.52;100708.19;5041582;28;20131;-66
2021/09/09 06:00:59;;;;;;;19.83;12.38;;;;;;;15.92;74.09;100702.75;5004385;28;20076;-66
2021/09/09 06:03:29;;;;;;;20.20;11.45;;;;;;;15.90;74.60;100698.53;5040060;28;20666;-67
2021/09/09 06:06:02;;;;;;;16.25;12.52;;;;;;;15.93;74.64;100706.25;5004444;28;20140;-67
2021/09/09 06:08:35;;;;;;;25.27;12.13;;;;;;;16.01;74.16;100708.28;5016008;28;20060;-67
2021/09/09 06:11:02;;;;;;;18.77;12.70;;;;;;;16.15;73.58;100710.69;5024912;28;20048;-67
2021/09/09 06:13:29;;;;;;;19.73;12.18;;;;;;;16.43;72.75;100707.44;5035262;28;20059;-67
2021/09/09 06:15:57;;;;;;;17.60;11.75;;;;;;;16.71;71.51;100705.19;5018269;28;20053;-66
2021/09/09 06:18:24;;;;;;;19.85;11.45;;;;;;;16.81;70.23;100707.94;5020451;28;20057;-67
2021/09/09 06:20:51;;;;;;;17.08;11.82;;;;;;;16.89;70.17;100709.00;5040282;28;20061;-67
2021/09/09 06:23:18;;;;;;;17.83;11.65;;;;;;;17.89;66.20;100693.28;5025356;28;20055;-66
2021/09/09 06:25:46;;;;;;;15.45;10.70;;;;;;;19.90;59.05;100696.03;5040347;28;20155;-68
2021/09/09 06:28:13;;;;;;;16.48;11.05;;;;;;;22.32;51.67;100690.06;5004337;28;20037;-68
2021/09/09 06:30:40;;;;;;;16.85;10.20;;;;;;;24.21;45.72;100687.69;5037472;28;20091;-67
2021/09/09 06:33:08;;;;;;;15.85;9.80;;;;;;;25.75;41.65;100687.31;5017790;28;20576;-67
2021/09/09 06:35:35;;;;;;;16.88;10.98;;;;;;;26.08;40.73;100680.72;5022168;28;20072;-66
2021/09/09 06:38:02;;;;;;;17.00;10.32;;;;;;;26.87;38.04;100691.47;5023719;28;20045;-67
2021/09/09 06:40:29;;;;;;;17.27;10.57;;;;;;;27.93;36.29;100687.59;5038291;28;20063;-67
2021/09/09 06:42:57;;;;;;;19.73;9.50;;;;;;;28.20;35.33;100687.69;5034568;28;20059;-67
2021/09/09 06:45:24;;;;;;;14.93;9.07;;;;;;;28.76;34.50;100685.50;5042148;28;20454;-66
2021/09/09 06:47:51;;;;;;;16.15;10.00;;;;;;;28.99;34.20;100685.09;5040398;28;20114;-67
2021/09/09 06:50:18;;;;;;;12.15;9.43;;;;;;;29.42;32.57;100691.94;5021032;28;20128;-67
2021/09/09 06:52:46;;;;;;;17.02;9.63;;;;;;;29.83;31.79;100686.19;5043162;28;20079;-67
2021/09/09 06:55:13;;;;;;;14.23;9.80;;;;;;;30.14;30.99;100701.72;5041247;28;20541;-68
2021/09/09 06:57:40;;;;;;;19.15;10.27;;;;;;;30.81;30.03;100693.16;5045157;28;20084;-69
2021/09/09 07:00:08;;;;;;;18.90;10.15;;;;;;;31.80;28.27;100692.16;5021590;28;20383;-67
2021/09/09 07:02:36;;;;;;;12.00;8.77;;;;;;;31.48;28.86;100691.50;5038744;28;20061;-66
2021/09/09 07:05:04;;;;;;;11.10;8.88;;;;;;;31.61;28.00;100688.63;5041248;28;20053;-67
2021/09/09 07:07:31;;;;;;;16.60;10.15;;;;;;;31.53;28.16;100691.63;5039354;28;20507;-68
2021/09/09 07:09:58;;;;;;;15.27;9.38;;;;;;;31.39;28.45;100690.13;5035847;28;20049;-68
2021/09/09 07:12:26;;;;;;;16.15;9.43;;;;;;;31.26;29.14;100681.00;5035128;28;20057;-67
2021/09/09 07:14:53;;;;;;;16.48;9.75;;;;;;;32.05;27.82;100672.16;5028014;28;20076;-66
2021/09/09 07:17:20;;;;;;;13.10;8.65;;;;;;;32.37;26.76;100672.75;5040315;28;20049;-66
2021/09/09 07:19:48;;;;;;;10.52;8.13;;;;;;;32.10;27.41;100678.56;5023858;28;20144;-67
2021/09/09 07:22:15;;;;;;;12.82;8.52;;;;;;;31.32;28.18;100684.75;5036768;28;20107;-67
2021/09/09 07:24:44;;;;;;;13.20;8.10;;;;;;;32.11;27.28;100680.25;5040190;28;20162;-67
2021/09/09 07:27:12;;;;;;;18.42;8.88;;;;;;;32.84;26.76;100684.59;5017866;28;20072;-66
2021/09/09 07:29:39;;;;;;;16.30;9.10;;;;;;;33.61;25.49;100681.75;5017335;28;20068;-67
2021/09/09 07:32:06;;;;;;;12.32;8.90;;;;;;;33.02;26.33;100672.78;5017591;28;20128;-66
2021/09/09 07:34:33;;;;;;;22.90;8.32;;;;;;;31.83;27.42;100675.38;5019306;28;20156;-66
2021/09/09 07:37:01;;;;;;;12.63;8.30;;;;;;;32.23;26.54;100675.66;5036337;28;20170;-67
2021/09/09 07:39:28;;;;;;;14.63;8.15;;;;;;;33.49;25.42;100676.31;5036287;28;20059;-67
2021/09/09 07:41:55;;;;;;;17.55;7.68;;;;;;;34.53;24.15;100671.78;5033164;28;20055;-67
2021/09/09 07:44:22;;;;;;;11.95;8.30;;;;;;;33.84;24.32;100672.66;5040144;28;20045;-66
2021/09/09 07:46:49;;;;;;;13.38;7.10;;;;;;;33.12;24.92;100672.19;5044801;28;20063;-67
2021/09/09 07:49:17;;;;;;;22.48;9.02;;;;;;;34.33;23.45;100677.69;5045621;28;20056;-67
2021/09/09 07:51:45;;;;;;;11.10;7.50;;;;;;;34.53;23.66;100680.78;5045678;28;20052;-68
2021/09/09 07:54:13;;;;;;;13.18;7.15;;;;;;;33.34;24.81;100675.13;5042115;28;20056;-66
2021/09/09 07:56:40;;;;;;;16.90;7.03;;;;;;;33.59;24.22;100678.41;5038580;28;20076;-67
2021/09/09 07:59:07;;;;;;;8.98;6.90;;;;;;;34.14;23.68;100677.91;5026725;28;20554;-67
2021/09/09 08:01:34;;;;;;;14.98;7.05;;;;;;;33.81;23.50;100683.22;5026944;28;20045;-68
2021/09/09 08:04:02;;;;;;;14.60;6.88;;;;;;;33.50;24.29;100685.31;5019999;28;20060;-68
2021/09/09 08:06:30;;;;;;;13.63;6.97;;;;;;;33.51;24.60;100682.38;5048255;28;20044;-66
2021/09/09 08:08:57;;;;;;;17.27;8.10;;;;;;;32.69;25.36;100682.34;5038642;28;20436;-67
2021/09/09 08:11:25;;;;;;;11.25;7.57;;;;;;;34.06;24.09;100681.03;5024937;28;20170;-68
2021/09/09 08:13:52;;;;;;;13.00;6.57;;;;;;;34.50;23.86;100681.31;5044827;28;20064;-68
2021/09/09 08:16:20;;;;;;;12.40;7.18;;;;;;;33.36;24.67;100678.44;5043736;28;20050;-67
2021/09/09 08:18:47;;;;;;;20.50;7.57;;;;;;;32.34;26.37;100681.41;5027308;28;20102;-67
2021/09/09 08:21:15;;;;;;;11.23;6.47;;;;;;;31.86;26.65;100695.88;5044218;28;20191;-68
2021/09/09 08:23:42;;;;;;;15.18;6.68;;;;;;;33.30;24.88;100682.97;5041820;28;20052;-67
2021/09/09 08:26:09;;;;;;;11.98;6.80;;;;;;;33.18;24.92;100677.50;5026198;28;20059;-66
2021/09/09 08:28:37;;;;;;;9.48;7.05;;;;;;;34.08;24.30;100676.13;5032594;28;20049;-67
2021/09/09 08:31:05;;;;;;;13.65;6.80;;;;;;;34.31;23.79;100672.47;5033365;28;20057;-67
2021/09/09 08:33:32;;;;;;;9.00;6.63;;;;;;;33.60;24.14;100677.38;5038554;28;20049;-67
2021/09/09 08:36:06;;;;;;;21.60;8.23;;;;;;;32.76;25.32;100682.22;5046540;28;20063;-67
2021/09/09 08:38:33;;;;;;;11.93;6.88;;;;;;;31.60;26.34;100678.78;5040523;28;20420;-68
2021/09/09 08:41:02;;;;;;;10.27;6.63;;;;;;;29.70;29.27;100681.63;5025960;28;20053;-68
2021/09/09 08:43:30;;;;;;;16.50;6.05;;;;;;;27.80;32.85;100679.44;5028657;28;20244;-67
2021/09/09 08:46:00;;;;;;;19.60;7.53;;;;;;;26.67;35.06;100684.03;5036195;28;20128;-67
2021/09/09 08:48:28;;;;;;;10.63;6.35;;;;;;;25.78;37.20;100688.84;5024113;28;20580;-69
2021/09/09 08:50:56;;;;;;;12.57;6.93;;;;;;;25.19;38.23;100676.19;5031076;28;20144;-67
2021/09/09 08:53:23;;;;;;;12.77;5.85;;;;;;;24.42;40.69;100673.66;5012198;28;20076;-67
2021/09/09 08:55:50;;;;;;;16.08;6.88;;;;;;;23.87;40.68;100677.31;5019094;28;20584;-67
2021/09/09 08:58:19;;;;;;;10.45;6.60;;;;;;;23.99;41.00;100675.06;5037714;28;20159;-67
2021/09/09 09:01:06;;;;;;;12.13;7.18;;;;;;;23.33;42.39;100685.22;5007838;28;20053;-66
2021/09/09 09:03:44;;;;;;;10.80;6.38;;;;;;;23.59;42.82;100682.25;5029737;28;20063;-68
2021/09/09 09:06:24;;;;;;;12.35;6.25;;;;;;;23.74;41.88;100672.50;5017119;28;20068;-68
2021/09/09 09:08:57;;;;;;;17.55;6.38;;;;;;;23.66;42.03;100672.53;5025408;28;20044;-67
2021/09/09 09:11:25;;;;;;;10.48;6.00;;;;;;;23.43;41.53;100676.97;5044911;28;20049;-68
2021/09/09 09:13:54;;;;;;;13.38;6.15;;;;;;;23.12;43.61;100679.56;5044801;28;20057;-69
2021/09/09 09:16:22;;;;;;;14.32;6.35;;;;;;;23.41;43.59;100677.09;5023686;28;20107;-67
2021/09/09 09:18:49;;;;;;;10.43;6.18;;;;;;;23.48;43.02;100671.91;5019503;28;20080;-66
2021/09/09 09:21:17;;;;;;;11.88;6.53;;;;;;;23.44;43.04;100666.03;5018827;28;20515;-65
2021/09/09 09:23:50;;;;;;;13.43;6.32;;;;;;;23.47;42.45;100673.75;5028464;28;20120;-66
2021/09/09 09:26:26;;;;;;;9.40;6.05;;;;;;;23.26;42.73;100668.09;5040748;28;20076;-66
2021/09/09 09:28:54;;;;;;;14.45;5.97;;;;;;;23.34;43.13;100670.78;5009554;28;20073;-67
2021/09/09 09:31:29;;;;;;;9.60;5.20;;;;;;;23.17;43.24;100671.81;5008705;28;20037;-68
2021/09/09 09:34:06;;;;;;;9.75;6.50;;;;;;;23.23;43.77;100677.31;5023348;28;20094;-69
2021/09/09 09:36:43;;;;;;;11.13;6.57;;;;;;;23.36;43.49;100665.22;5020301;28;20049;-67
2021/09/09 09:39:19;;;;;;;15.07;7.47;;;;;;;23.29;42.96;100667.78;5040678;28;20149;-68
2021/09/09 09:41:52;;;;;;;10.10;6.78;;;;;;;23.45;43.02;100656.94;5031007;28;20223;-68
2021/09/09 09:44:31;;;;;;;15.65;6.70;;;;;;;23.50;43.10;100667.19;5044325;28;20136;-68
2021/09/09 09:47:09;;;;;;;15.90;6.45;;;;;;;23.50;43.39;100656.44;5039455;28;20498;-68
2021/09/09 09:49:44;;;;;;;10.13;5.82;;;;;;;23.43;43.16;100658.16;5030406;28;20550;-67
2021/09/09 09:52:19;;;;;;;11.82;5.88;;;;;;;23.62;42.97;100659.59;5021284;28;20171;-68
2021/09/09 09:54:53;;;;;;;11.82;6.07;;;;;;;23.48;42.47;100650.41;5038726;28;20064;-66
2021/09/09 09:57:23;;;;;;;8.13;5.93;;;;;;;23.32;42.68;100651.28;5037854;28;20053;-66
2021/09/09 09:59:50;;;;;;;17.60;6.70;;;;;;;23.20;43.36;100650.84;5040805;28;20473;-67
2021/09/09 10:02:17;;;;;;;10.43;6.35;;;;;;;23.31;43.68;100646.09;5042150;28;20432;-67
2021/09/09 10:04:48;;;;;;;11.63;5.95;;;;;;;23.46;42.89;100644.34;5038146;28;20717;-67
2021/09/09 10:07:16;;;;;;;7.90;6.00;;;;;;;23.53;42.98;100641.81;5022492;28;20135;-67
2021/09/09 10:09:44;;;;;;;7.10;5.47;;;;;;;23.71;42.27;100639.75;5040043;28;20129;-67
2021/09/09 10:12:12;;;;;;;12.95;5.93;;;;;;;23.24;42.95;100651.34;5044755;28;20059;-66
2021/09/09 10:14:49;;;;;;;12.52;6.10;;;;;;;23.53;42.95;100641.81;5036635;28;20498;-66
2021/09/09 10:17:18;;;;;;;12.35;7.00;;;;;;;23.28;43.31;100649.13;5035208;28;20058;-67
2021/09/09 10:19:45;;;;;;;10.50;5.78;;;;;;;23.42;42.95;100643.88;5035312;28;20132;-68
2021/09/09 10:22:16;;;;;;;9.10;5.70;;;;;;;23.65;43.25;100638.63;5031485;28;20045;-67
2021/09/09 10:24:45;;;;;;;9.52;6.40;;;;;;;23.73;43.05;100638.56;5037474;28;20051;-67
2021/09/09 10:27:32;;;;;;;7.95;6.25;;;;;;;23.76;41.87;100640.06;5036569;28;20044;-68
2021/09/09 10:30:04;;;;;;;13.40;6.57;;;;;;;23.56;42.88;100638.78;5021948;28;20052;-65
2021/09/09 10:32:31;;;;;;;10.18;6.15;;;;;;;23.73;42.65;100637.72;5040723;28;20121;-67
2021/09/09 10:35:17;;;;;;;12.82;7.28;;;;;;;23.77;42.76;100632.84;5023068;28;20131;-66
2021/09/09 10:37:52;;;;;;;11.15;5.82;;;;;;;23.83;42.47;100629.47;5041863;28;20143;-67
2021/09/09 10:40:31;;;;;;;;;;;;;;;23.74;42.38;100624.13;5038196;28;20128;-66
2021/09/09 10:43:11;;;;;;;8.68;5.47;;;;;;;23.42;43.43;100632.31;5037365;28;20011;-67
2021/09/09 10:45:41;;;;;;;11.13;5.82;;;;;;;23.23;43.85;100630.84;5038981;28;20107;-66
2021/09/09 10:48:09;;;;;;;11.80;6.05;;;;;;;23.56;43.62;100628.88;5031461;28;20132;-67
2021/09/09 10:50:37;;;;;;;11.27;6.15;;;;;;;23.64;43.66;100617.25;5031243;28;20131;-66
2021/09/09 10:53:09;;;;;;;12.15;5.65;;;;;;;23.81;42.84;100626.94;5021790;28;20045;-66
2021/09/09 10:55:39;;;;;;;10.02;6.03;;;;;;;23.68;42.57;100618.59;5041591;28;20464;-67
2021/09/09 10:58:13;;;;;;;14.50;5.75;;;;;;;23.62;43.10;100614.72;5025887;28;20156;-67
2021/09/09 11:00:52;;;;;;;13.30;5.45;;;;;;;23.65;43.30;100611.75;5039620;28;20053;-68
2021/09/09 11:03:46;;;;;;;10.68;5.82;;;;;;;23.57;42.87;100622.50;5042934;28;20049;-67
2021/09/09 11:06:15;;;;;;;10.02;5.93;;;;;;;23.65;43.50;100619.81;5041712;28;20437;-68
2021/09/09 11:08:45;;;;;;;8.20;5.65;;;;;;;23.89;43.58;100618.00;5034899;28;20057;-68
2021/09/09 11:11:14;;;;;;;9.68;6.18;;;;;;;23.97;43.41;100616.09;5011821;28;20124;-67
2021/09/09 11:13:42;;;;;;;9.57;5.53;;;;;;;23.97;43.28;100617.94;5009922;28;20088;-67
2021/09/09 11:16:19;;;;;;;17.25;6.25;;;;;;;24.00;42.88;100610.38;5046313;28;20656;-69
2021/09/09 11:18:47;;;;;;;11.15;6.07;;;;;;;24.06;43.01;100611.50;5024656;28;20045;-69